Time;durP1;ratioP1;P1;durP2;ratioP2;P2;SDS_P1;SDS_P2;PMS_P1;PMS_P2;Temp;Humidity;BMP_temperature;BMP_pressure;BME280_temperature;BME280_humidity;BME280_pressure;Samples;Min_cycle;Max_cycle;Signal;HPM_P1;HPM_P2
2021/06/01 00:01:37;;;;;;;12.20;7.65;;;;;;;;;;5088836;28;20035;-71
2021/06/01 00:04:03;;;;;;;11.05;7.47;;;;;;;;;;5103395;28;20534;-70
2021/06/01 00:06:29;;;;;;;11.15;7.28;;;;;;;;;;5088638;28;20036;-71
2021/06/01 00:08:56;;;;;;;9.63;7.20;;;;;;;;;;5106615;28;20471;-70
2021/06/01 00:11:22;;;;;;;11.05;7.32;;;;;;;;;;5088798;28;20032;-69
2021/06/01 00:13:48;;;;;;;10.85;8.02;;;;;;;;;;5094792;28;20044;-70
2021/06/01 00:16:14;;;;;;;11.00;7.40;;;;;;;;;;5088920;28;20104;-70
2021/06/01 00:18:41;;;;;;;12.02;7.65;;;;;;;;;;5089544;28;20060;-70
2021/06/01 00:21:08;;;;;;;9.30;7.38;;;;;;;;;;5094594;28;20024;-70
2021/06/01 00:23:37;;;;;;;11.50;7.28;;;;;;;;;;5109067;28;20036;-72
2021/06/01 00:26:04;;;;;;;10.00;7.22;;;;;;;;;;5108834;28;20825;-71
2021/06/01 00:28:30;;;;;;;10.60;7.32;;;;;;;;;;5100500;28;20036;-70
2021/06/01 00:30:56;;;;;;;8.73;7.68;;;;;;;;;;5088395;28;20025;-71
2021/06/01 00:33:22;;;;;;;11.50;6.55;;;;;;;;;;5088810;28;20032;-70
2021/06/01 00:35:48;;;;;;;8.73;7.15;;;;;;;;;;5090337;28;20024;-70
2021/06/01 00:38:14;;;;;;;7.63;6.07;;;;;;;;;;5102150;28;20032;-70
2021/06/01 00:40:40;;;;;;;9.57;6.15;;;;;;;;;;5088190;28;20129;-70
2021/06/01 00:43:06;;;;;;;9.73;6.65;;;;;;;;;;5091809;28;20028;-70
2021/06/01 00:45:33;;;;;;;10.32;6.78;;;;;;;;;;5092376;28;20367;-71
2021/06/01 00:47:59;;;;;;;9.40;6.50;;;;;;;;;;5111637;28;20031;-71
2021/06/01 00:50:27;;;;;;;8.73;6.78;;;;;;;;;;5112737;28;20127;-71
2021/06/01 00:52:53;;;;;;;9.43;6.10;;;;;;;;;;5111590;28;20111;-70
2021/06/01 00:55:20;;;;;;;9.57;6.63;;;;;;;;;;5105762;28;20537;-72
2021/06/01 00:57:46;;;;;;;9.32;7.22;;;;;;;;;;5095962;28;20552;-71
2021/06/01 01:02:45;;;;;;;6.93;6.22;;;;;;;;;;5093087;28;20081;-71
2021/06/01 01:05:13;;;;;;;9.40;6.88;;;;;;;;;;5103411;28;20660;-71
2021/06/01 01:07:46;;;;;;;7.53;6.00;;;;;;;;;;5092076;28;20114;-72
2021/06/01 01:10:13;;;;;;;9.60;6.30;;;;;;;;;;5092136;28;20050;-71
2021/06/01 01:12:51;;;;;;;9.38;5.97;;;;;;;;;;5102903;28;20059;-70
2021/06/01 01:15:20;;;;;;;12.75;7.25;;;;;;;;;;5111047;28;20035;-71
2021/06/01 01:17:56;;;;;;;7.70;5.90;;;;;;;;;;5112569;28;20438;-70
2021/06/01 01:20:31;;;;;;;8.53;6.53;;;;;;;;;;5111965;28;20449;-71
2021/06/01 01:22:58;;;;;;;6.38;5.63;;;;;;;;;;5112926;28;20031;-71
2021/06/01 01:25:29;;;;;;;7.57;6.70;;;;;;;;;;5111631;28;20049;-70
2021/06/01 01:28:14;;;;;;;8.35;6.43;;;;;;;;;;5113874;28;20027;-70
2021/06/01 01:30:47;;;;;;;9.93;6.07;;;;;;;;;;5110947;28;20024;-71
2021/06/01 01:33:20;;;;;;;9.05;6.10;;;;;;;;;;5113285;28;20031;-72
2021/06/01 01:35:47;;;;;;;8.80;6.70;;;;;;;;;;5093130;28;20028;-71
2021/06/01 01:38:14;;;;;;;7.93;5.93;;;;;;;;;;5112348;28;20035;-71
2021/06/01 01:40:41;;;;;;;7.05;6.32;;;;;;;;;;5112112;28;20065;-72
2021/06/01 01:43:14;;;;;;;9.35;7.18;;;;;;;;;;5111897;28;20030;-72
2021/06/01 01:45:43;;;;;;;8.18;7.20;;;;;;;;;;5094086;28;20028;-71
2021/06/01 01:51:11;;;;;;;11.40;7.32;;;;;;;;;;5091898;28;20407;-72
2021/06/01 01:53:38;;;;;;;8.27;6.07;;;;;;;;;;5091136;28;20415;-72
2021/06/01 01:56:04;;;;;;;9.10;6.95;;;;;;;;;;5091558;28;20497;-71
2021/06/01 01:58:30;;;;;;;8.23;6.10;;;;;;;;;;5092187;28;20028;-70
2021/06/01 02:00:56;;;;;;;9.48;6.53;;;;;;;;;;5091680;28;20028;-71
2021/06/01 02:03:22;;;;;;;9.55;6.40;;;;;;;;;;5098294;28;20024;-71
2021/06/01 02:05:49;;;;;;;7.60;5.97;;;;;;;;;;5099818;28;20035;-71
2021/06/01 02:08:15;;;;;;;8.55;7.00;;;;;;;;;;5091553;28;20032;-72
2021/06/01 02:10:41;;;;;;;8.32;6.55;;;;;;;;;;5091481;28;20036;-71
2021/06/01 02:13:07;;;;;;;12.10;6.90;;;;;;;;;;5091217;28;20124;-71
2021/06/01 02:15:33;;;;;;;9.52;6.53;;;;;;;;;;5105360;28;20032;-72
2021/06/01 02:17:59;;;;;;;10.98;6.45;;;;;;;;;;5091235;28;20032;-73
2021/06/01 02:20:25;;;;;;;9.85;6.70;;;;;;;;;;5102967;28;20020;-73
2021/06/01 02:25:40;;;;;;;7.57;6.55;;;;;;;;;;5111134;28;20656;-72
2021/06/01 02:28:18;;;;;;;11.90;7.32;;;;;;;;;;5110393;28;20028;-72
2021/06/01 02:30:52;;;;;;;10.13;6.90;;;;;;;;;;5111699;28;20059;-72
2021/06/01 02:33:20;;;;;;;9.43;7.32;;;;;;;;;;5109048;28;20031;-72
2021/06/01 02:35:47;;;;;;;11.15;7.00;;;;;;;;;;5103627;27;20027;-70
2021/06/01 02:38:13;;;;;;;9.45;6.15;;;;;;;;;;5096304;28;20032;-71
2021/06/01 02:40:40;;;;;;;10.90;7.57;;;;;;;;;;5090800;28;20026;-73
2021/06/01 02:43:08;;;;;;;10.02;6.50;;;;;;;;;;5109873;28;20027;-71
2021/06/01 02:45:36;;;;;;;8.30;6.70;;;;;;;;;;5111200;28;20108;-71
2021/06/01 02:48:05;;;;;;;13.65;7.28;;;;;;;;;;5110195;28;20027;-72
2021/06/01 02:50:32;;;;;;;8.68;6.97;;;;;;;;;;5110203;28;20040;-72
2021/06/01 02:52:58;;;;;;;11.55;7.38;;;;;;;;;;5108666;28;20034;-71
2021/06/01 02:55:26;;;;;;;12.80;7.35;;;;;;;;;;5095047;28;20514;-71
2021/06/01 02:57:52;;;;;;;13.02;7.80;;;;;;;;;;5104103;28;20074;-69
2021/06/01 03:00:25;;;;;;;8.98;7.65;;;;;;;;;;5099018;28;20019;-72
2021/06/01 03:02:51;;;;;;;11.13;7.50;;;;;;;;;;5109280;28;20036;-72
2021/06/01 03:05:18;;;;;;;12.82;7.60;;;;;;;;;;5105454;28;20027;-70
2021/06/01 03:07:51;;;;;;;11.48;7.50;;;;;;;;;;5094406;28;20056;-72
2021/06/01 03:10:18;;;;;;;12.05;8.18;;;;;;;;;;5097237;28;20102;-72
2021/06/01 03:15:16;;;;;;;9.82;6.95;;;;;;;;;;5097045;28;20031;-70
2021/06/01 03:17:42;;;;;;;13.43;6.97;;;;;;;;;;5106831;28;20039;-71
2021/06/01 03:20:09;;;;;;;12.43;8.55;;;;;;;;;;5102147;28;20035;-71
2021/06/01 03:22:35;;;;;;;10.68;7.40;;;;;;;;;;5091365;28;20106;-72
2021/06/01 03:25:02;;;;;;;9.32;6.82;;;;;;;;;;5098071;28;20019;-72
2021/06/01 03:27:28;;;;;;;11.88;7.75;;;;;;;;;;5089943;28;20032;-71
2021/06/01 03:29:54;;;;;;;11.50;7.90;;;;;;;;;;5108626;28;20023;-71
2021/06/01 03:32:21;;;;;;;13.07;7.82;;;;;;;;;;5105708;28;20110;-71
2021/06/01 03:34:47;;;;;;;11.60;8.45;;;;;;;;;;5093080;28;20032;-72
2021/06/01 03:37:13;;;;;;;12.60;7.97;;;;;;;;;;5086587;28;20122;-71
2021/06/01 03:39:39;;;;;;;10.27;7.82;;;;;;;;;;5095513;28;20470;-70
2021/06/01 03:42:11;;;;;;;13.30;7.93;;;;;;;;;;5089904;28;20214;-73
2021/06/01 03:44:37;;;;;;;10.30;7.43;;;;;;;;;;5098372;28;20027;-72
2021/06/01 03:47:04;;;;;;;12.73;8.68;;;;;;;;;;5096320;28;20813;-72
2021/06/01 03:49:30;;;;;;;17.58;9.07;;;;;;;;;;5093622;28;20027;-71
2021/06/01 03:51:56;;;;;;;10.50;8.18;;;;;;;;;;5089415;28;20112;-71
2021/06/01 03:54:22;;;;;;;13.40;8.02;;;;;;;;;;5094763;28;20027;-72
2021/06/01 03:56:48;;;;;;;15.55;8.45;;;;;;;;;;5099523;28;20483;-72
2021/06/01 03:59:14;;;;;;;9.13;8.20;;;;;;;;;;5096245;28;20657;-73
2021/06/01 04:01:40;;;;;;;14.50;8.63;;;;;;;;;;5093821;28;20028;-71
2021/06/01 04:04:07;;;;;;;9.38;7.93;;;;;;;;;;5107728;28;20023;-71
2021/06/01 04:06:34;;;;;;;12.73;7.85;;;;;;;;;;5094559;28;20084;-71
2021/06/01 04:09:00;;;;;;;12.27;8.93;;;;;;;;;;5088668;28;20645;-71
2021/06/01 04:11:27;;;;;;;11.88;8.10;;;;;;;;;;5098670;28;20035;-72
2021/06/01 04:13:53;;;;;;;14.38;7.95;;;;;;;;;;5106645;28;20055;-70
2021/06/01 04:16:20;;;;;;;10.77;7.82;;;;;;;;;;5097676;28;20687;-71
2021/06/01 04:18:46;;;;;;;11.98;8.18;;;;;;;;;;5109855;28;20024;-71
2021/06/01 04:21:12;;;;;;;12.02;7.43;;;;;;;;;;5091966;28;20016;-70
2021/06/01 04:23:38;;;;;;;15.85;8.57;;;;;;;;;;5094453;28;20520;-71
2021/06/01 04:26:04;;;;;;;9.50;8.07;;;;;;;;;;5101377;28;20068;-71
2021/06/01 04:28:30;;;;;;;13.48;8.52;;;;;;;;;;5093087;28;20382;-72
2021/06/01 04:30:56;;;;;;;12.90;8.10;;;;;;;;;;5108007;28;20055;-71
2021/06/01 04:33:22;;;;;;;11.90;8.20;;;;;;;;;;5095288;28;20039;-71
2021/06/01 04:35:48;;;;;;;9.40;7.65;;;;;;;;;;5095493;28;20968;-71
2021/06/01 04:38:14;;;;;;;10.73;8.45;;;;;;;;;;5100607;28;20035;-72
2021/06/01 04:40:40;;;;;;;12.82;8.38;;;;;;;;;;5108846;28;20038;-71
2021/06/01 04:43:06;;;;;;;12.48;7.70;;;;;;;;;;5092136;28;20028;-72
2021/06/01 04:45:32;;;;;;;10.57;7.70;;;;;;;;;;5102804;28;20766;-72
2021/06/01 04:47:59;;;;;;;11.05;7.90;;;;;;;;;;5096578;28;20103;-70
2021/06/01 04:50:25;;;;;;;9.70;7.32;;;;;;;;;;5102573;28;20111;-72
2021/06/01 04:52:51;;;;;;;10.20;7.75;;;;;;;;;;5094928;28;20063;-71
2021/06/01 04:55:17;;;;;;;9.88;7.72;;;;;;;;;;5111111;28;20820;-71
2021/06/01 04:57:43;;;;;;;12.48;8.98;;;;;;;;;;5108270;28;20035;-72
2021/06/01 05:00:11;;;;;;;12.02;7.15;;;;;;;;;;5112165;28;20032;-71
2021/06/01 05:02:37;;;;;;;9.52;7.22;;;;;;;;;;5098705;28;20028;-71
2021/06/01 05:05:04;;;;;;;10.45;7.20;;;;;;;;;;5092713;28;20103;-72
2021/06/01 05:07:30;;;;;;;8.90;6.80;;;;;;;;;;5092102;28;20470;-71
2021/06/01 05:10:00;;;;;;;11.95;8.60;;;;;;;;;;5100282;28;20036;-72
2021/06/01 05:12:26;;;;;;;10.80;7.50;;;;;;;;;;5075429;28;20040;-72
2021/06/01 05:14:53;;;;;;;11.32;7.68;;;;;;;;;;5106940;28;20102;-72
2021/06/01 05:17:19;;;;;;;13.48;8.32;;;;;;;;;;5099841;28;20035;-72
2021/06/01 05:19:45;;;;;;;14.40;7.70;;;;;;;;;;5101757;28;20024;-73
2021/06/01 05:22:12;;;;;;;14.43;8.07;;;;;;;;;;5092243;28;20037;-70
2021/06/01 05:24:38;;;;;;;10.55;7.78;;;;;;;;;;5101023;28;20020;-71
2021/06/01 05:27:05;;;;;;;11.38;8.00;;;;;;;;;;5091632;28;20060;-71
2021/06/01 05:29:32;;;;;;;14.25;7.57;;;;;;;;;;5091413;28;20114;-72
2021/06/01 05:32:05;;;;;;;10.50;7.35;;;;;;;;;;5092650;28;20031;-72
2021/06/01 05:34:34;;;;;;;11.77;7.85;;;;;;;;;;5102195;28;20431;-72
2021/06/01 05:37:00;;;;;;;9.43;7.15;;;;;;;;;;5089687;28;20062;-72
2021/06/01 05:39:26;;;;;;;13.65;7.55;;;;;;;;;;5089808;28;20027;-72
2021/06/01 05:41:53;;;;;;;10.90;7.15;;;;;;;;;;5089249;28;20024;-70
2021/06/01 05:44:19;;;;;;;10.55;7.97;;;;;;;;;;5103737;28;20035;-72
2021/06/01 05:46:45;;;;;;;7.95;6.90;;;;;;;;;;5111212;28;20055;-71
2021/06/01 05:49:11;;;;;;;9.30;6.97;;;;;;;;;;5110861;28;20435;-72
2021/06/01 05:51:37;;;;;;;9.52;7.03;;;;;;;;;;5111831;28;20043;-71
2021/06/01 05:54:04;;;;;;;8.75;7.45;;;;;;;;;;5100285;28;20111;-72
2021/06/01 05:56:30;;;;;;;11.75;7.53;;;;;;;;;;5091244;28;20107;-70
2021/06/01 05:58:56;;;;;;;9.23;7.45;;;;;;;;;;5091049;28;20484;-71
2021/06/01 06:01:22;;;;;;;12.02;7.82;;;;;;;;;;5091831;28;20611;-71
2021/06/01 06:03:49;;;;;;;9.57;6.85;;;;;;;;;;5103057;28;20473;-71
2021/06/01 06:06:15;;;;;;;8.80;7.75;;;;;;;;;;5103936;28;20020;-72
2021/06/01 06:08:42;;;;;;;10.02;8.30;;;;;;;;;;5091093;28;20035;-72
2021/06/01 06:11:08;;;;;;;12.90;7.93;;;;;;;;;;5090791;28;20035;-72
2021/06/01 06:13:35;;;;;;;13.95;8.18;;;;;;;;;;5106312;28;20070;-72
2021/06/01 06:16:01;;;;;;;15.25;8.68;;;;;;;;;;5096227;28;20023;-72
2021/06/01 06:18:28;;;;;;;13.00;7.88;;;;;;;;;;5104633;28;20039;-72
2021/06/01 06:20:59;;;;;;;9.88;8.07;;;;;;;;;;5109141;28;20031;-71
2021/06/01 06:23:25;;;;;;;11.00;7.60;;;;;;;;;;5109857;28;20607;-72
2021/06/01 06:25:51;;;;;;;11.32;7.45;;;;;;;;;;5090422;28;20071;-71
2021/06/01 06:28:17;;;;;;;11.82;6.70;;;;;;;;;;5089051;28;20479;-72
2021/06/01 06:30:43;;;;;;;11.18;7.25;;;;;;;;;;5089201;28;20027;-72
2021/06/01 06:33:09;;;;;;;10.23;7.43;;;;;;;;;;5071019;28;20016;-72
2021/06/01 06:35:35;;;;;;;9.90;6.80;;;;;;;;;;5089596;28;20032;-71
2021/06/01 06:38:02;;;;;;;7.97;7.18;;;;;;;;;;5089675;28;20047;-72
2021/06/01 06:40:28;;;;;;;10.05;7.15;;;;;;;;;;5104158;28;20107;-72
2021/06/01 06:42:54;;;;;;;10.85;8.00;;;;;;;;;;5091266;28;20032;-72
2021/06/01 06:45:20;;;;;;;12.20;8.10;;;;;;;;;;5089995;28;20487;-70
2021/06/01 06:50:19;;;;;;;13.07;9.02;;;;;;;;;;5090726;28;20036;-71
2021/06/01 06:52:46;;;;;;;11.57;9.13;;;;;;;;;;5101042;28;20036;-72
2021/06/01 06:55:13;;;;;;;15.88;9.20;;;;;;;;;;5099799;28;20130;-71
2021/06/01 06:57:40;;;;;;;27.83;10.18;;;;;;;;;;5099303;28;20031;-73
2021/06/01 07:00:08;;;;;;;14.50;10.52;;;;;;;;;;5108370;28;20478;-74
2021/06/01 07:02:34;;;;;;;13.98;9.77;;;;;;;;;;5097328;28;20032;-70
2021/06/01 07:05:01;;;;;;;15.40;10.60;;;;;;;;;;5098932;28;20020;-73
2021/06/01 07:07:27;;;;;;;12.25;8.82;;;;;;;;;;5100358;28;20520;-71
2021/06/01 07:09:53;;;;;;;13.45;9.15;;;;;;;;;;5098483;28;20063;-72
2021/06/01 07:12:19;;;;;;;14.80;9.68;;;;;;;;;;5104190;28;20062;-70
2021/06/01 07:15:09;;;;;;;10.82;8.32;;;;;;;;;;5103695;28;20135;-71
2021/06/01 07:17:35;;;;;;;12.80;9.48;;;;;;;;;;5075270;28;20048;-68
2021/06/01 07:20:02;;;;;;;12.68;9.07;;;;;;;;;;5089999;28;20032;-69
2021/06/01 07:22:28;;;;;;;13.27;9.50;;;;;;;;;;5108188;28;20055;-71
2021/06/01 07:24:54;;;;;;;16.85;9.68;;;;;;;;;;5102770;28;20028;-73
2021/06/01 07:27:20;;;;;;;17.83;11.00;;;;;;;;;;5098533;28;20036;-72
2021/06/01 07:29:46;;;;;;;15.45;9.70;;;;;;;;;;5092539;28;20035;-72
2021/06/01 07:32:12;;;;;;;12.57;9.18;;;;;;;;;;5106687;28;20032;-72
2021/06/01 07:34:38;;;;;;;14.50;9.23;;;;;;;;;;5097641;28;20073;-71
2021/06/01 07:37:05;;;;;;;14.40;9.35;;;;;;;;;;5102956;28;20632;-72
2021/06/01 07:39:31;;;;;;;14.80;8.90;;;;;;;;;;5100234;28;20100;-70
2021/06/01 07:41:57;;;;;;;13.60;10.35;;;;;;;;;;5098628;28;20024;-72
2021/06/01 07:44:23;;;;;;;17.17;10.65;;;;;;;;;;5090181;28;20024;-73
2021/06/01 07:46:50;;;;;;;15.20;9.43;;;;;;;;;;5089949;28;20032;-73
2021/06/01 07:49:16;;;;;;;13.20;9.73;;;;;;;;;;5094486;28;20020;-71
2021/06/01 07:51:42;;;;;;;15.85;11.00;;;;;;;;;;5107034;28;20051;-72
2021/06/01 07:54:08;;;;;;;13.95;9.52;;;;;;;;;;5094847;28;20032;-73
2021/06/01 07:56:35;;;;;;;13.88;10.05;;;;;;;;;;5086964;28;20577;-74
2021/06/01 07:59:01;;;;;;;14.07;9.70;;;;;;;;;;5093463;28;20028;-73
2021/06/01 08:01:27;;;;;;;14.95;10.57;;;;;;;;;;5102788;28;20024;-72
2021/06/01 08:03:53;;;;;;;15.32;10.35;;;;;;;;;;5096583;28;20039;-72
2021/06/01 08:06:19;;;;;;;21.17;9.45;;;;;;;;;;5094906;28;20028;-72
2021/06/01 08:08:45;;;;;;;16.38;9.85;;;;;;;;;;5092807;28;20103;-72
2021/06/01 08:11:12;;;;;;;12.02;8.50;;;;;;;;;;5092288;28;20108;-72
2021/06/01 08:13:38;;;;;;;17.67;8.40;;;;;;;;;;5097525;28;20113;-71
2021/06/01 08:16:04;;;;;;;10.85;7.60;;;;;;;;;;5099227;28;20027;-71
2021/06/01 08:18:36;;;;;;;10.85;8.13;;;;;;;;;;5106169;28;20058;-72
2021/06/01 08:21:09;;;;;;;14.65;8.27;;;;;;;;;;5079497;28;20046;-72
2021/06/01 08:23:36;;;;;;;12.63;7.20;;;;;;;;;;5096067;28;20040;-72
2021/06/01 08:26:02;;;;;;;10.82;8.23;;;;;;;;;;5090877;28;20028;-72
2021/06/01 08:28:29;;;;;;;16.67;6.78;;;;;;;;;;5093705;28;20054;-72
2021/06/01 08:30:55;;;;;;;10.93;6.60;;;;;;;;;;5096823;28;20103;-71
2021/06/01 08:33:21;;;;;;;11.60;6.43;;;;;;;;;;5089145;28;20471;-72
2021/06/01 08:35:48;;;;;;;11.65;6.72;;;;;;;;;;5087895;28;20039;-71
2021/06/01 08:38:17;;;;;;;12.48;6.47;;;;;;;;;;5090286;28;20376;-69
2021/06/01 08:40:48;;;;;;;11.43;6.50;;;;;;;;;;5093485;28;20037;-72
2021/06/01 08:43:15;;;;;;;9.82;6.35;;;;;;;;;;5090048;28;20052;-70
2021/06/01 08:45:44;;;;;;;11.30;5.82;;;;;;;;;;5101153;28;20031;-72
2021/06/01 08:48:10;;;;;;;9.80;6.50;;;;;;;;;;5088695;28;20028;-69
2021/06/01 08:50:36;;;;;;;10.02;6.15;;;;;;;;;;5092769;28;20441;-73
2021/06/01 08:53:02;;;;;;;9.95;6.15;;;;;;;;;;5097104;28;20028;-72
2021/06/01 08:55:28;;;;;;;12.85;6.82;;;;;;;;;;5095576;28;20036;-73
2021/06/01 08:57:54;;;;;;;14.82;6.60;;;;;;;;;;5089730;28;20572;-72
2021/06/01 09:00:21;;;;;;;10.18;6.43;;;;;;;;;;5094197;28;20044;-72
2021/06/01 09:03:04;;;;;;;12.77;6.53;;;;;;;;;;5107267;28;20402;-72
2021/06/01 09:05:31;;;;;;;9.18;6.63;;;;;;;;;;5098197;28;20030;-72
2021/06/01 09:08:07;;;;;;;7.28;6.57;;;;;;;;;;5107822;28;20110;-71
2021/06/01 09:22:06;;;;;;;10.00;7.30;;;;;;;;;;5079464;28;20042;-69
2021/06/01 09:24:32;;;;;;;10.15;7.13;;;;;;;;;;5100788;28;20024;-72
2021/06/01 09:27:06;;;;;;;9.23;6.45;;;;;;;;;;5098919;28;20402;-70
2021/06/01 09:29:33;;;;;;;9.90;5.60;;;;;;;;;;5103518;28;20059;-72
2021/06/01 09:32:14;;;;;;;10.40;6.30;;;;;;;;;;5093052;28;20023;-72
2021/06/01 09:34:40;;;;;;;8.50;5.93;;;;;;;;;;5091632;28;20070;-71
2021/06/01 09:37:16;;;;;;;8.60;5.63;;;;;;;;;;5091920;28;20494;-71
2021/06/01 09:39:43;;;;;;;13.10;6.85;;;;;;;;;;5082123;28;20032;-71
2021/06/01 09:42:25;;;;;;;10.68;5.50;;;;;;;;;;5093563;28;20107;-71
2021/06/01 09:45:11;;;;;;;9.02;5.45;;;;;;;;;;5104841;28;20777;-71
2021/06/01 09:47:41;;;;;;;8.30;5.65;;;;;;;;;;5094178;28;20047;-69
2021/06/01 09:50:16;;;;;;;5.47;4.88;;;;;;;;;;5075751;28;20039;-70
2021/06/01 09:52:50;;;;;;;6.68;4.90;;;;;;;;;;5087335;28;20030;-69
2021/06/01 09:55:23;;;;;;;9.95;6.13;;;;;;;;;;5105981;28;20360;-70
2021/06/01 09:57:49;;;;;;;8.13;5.78;;;;;;;;;;5091150;28;20391;-71
2021/06/01 10:00:17;;;;;;;10.20;6.15;;;;;;;;;;5099422;28;20028;-69
2021/06/01 10:02:44;;;;;;;6.53;5.15;;;;;;;;;;5099893;28;20482;-71
2021/06/01 10:05:13;;;;;;;9.48;5.85;;;;;;;;;;5102843;28;20038;-71
2021/06/01 10:07:40;;;;;;;7.90;5.50;;;;;;;;;;5093421;28;20509;-70
2021/06/01 10:10:13;;;;;;;11.60;5.60;;;;;;;;;;5094706;28;20074;-70
2021/06/01 10:12:39;;;;;;;8.30;5.43;;;;;;;;;;5101113;28;20059;-71
2021/06/01 10:15:06;;;;;;;7.28;5.80;;;;;;;;;;5107504;28;20093;-70
2021/06/01 10:17:32;;;;;;;14.25;7.70;;;;;;;;;;5095346;28;20051;-70
2021/06/01 10:19:59;;;;;;;10.68;5.80;;;;;;;;;;5099783;28;20031;-70
2021/06/01 10:22:25;;;;;;;10.70;6.22;;;;;;;;;;5075710;28;20399;-73
2021/06/01 10:24:51;;;;;;;8.43;5.85;;;;;;;;;;5097773;28;20487;-71
2021/06/01 10:27:17;;;;;;;7.65;4.97;;;;;;;;;;5099781;28;20038;-69
2021/06/01 10:29:43;;;;;;;10.55;5.70;;;;;;;;;;5074480;28;20028;-69
2021/06/01 10:32:10;;;;;;;8.57;5.80;;;;;;;;;;5097726;28;20035;-69
2021/06/01 10:34:36;;;;;;;9.05;5.97;;;;;;;;;;5100309;28;20042;-70
2021/06/01 10:42:46;;;;;;;12.93;6.13;;;;;;;;;;5090809;28;20178;-69
2021/06/01 10:53:04;;;;;;;8.95;6.22;;;;;;;;;;5102220;28;20428;-71
2021/06/01 10:56:06;;;;;;;11.43;5.90;;;;;;;;;;5101276;28;20490;-71
2021/06/01 10:58:40;;;;;;;6.05;5.32;;;;;;;;;;5006693;28;20057;-71
2021/06/01 11:04:11;;;;;;;11.13;5.93;;;;;;;;;;5105167;28;20528;-69
2021/06/01 11:06:54;;;;;;;7.90;5.13;;;;;;;;;;5098742;28;20482;-71
2021/06/01 11:09:40;;;;;;;6.68;4.65;;;;;;;;;;5090203;28;20027;-70
2021/06/01 11:12:20;;;;;;;7.45;4.50;;;;;;;;;;5091243;28;20023;-70
2021/06/01 11:14:47;;;;;;;5.07;4.40;;;;;;;;;;5098038;28;20047;-69
2021/06/01 11:17:14;;;;;;;6.28;5.53;;;;;;;;;;5100058;28;20036;-70
2021/06/01 11:19:56;;;;;;;6.28;5.05;;;;;;;;;;5092174;28;20028;-69
2021/06/01 11:22:27;;;;;;;5.88;4.95;;;;;;;;;;5106586;28;20020;-70
2021/06/01 11:33:31;;;;;;;7.60;5.32;;;;;;;;;;5101009;28;20043;-72
2021/06/01 11:36:02;;;;;;;7.57;5.30;;;;;;;;;;5092503;28;20031;-71
2021/06/01 11:38:40;;;;;;;7.25;5.30;;;;;;;;;;5094938;28;20039;-71
2021/06/01 11:43:34;;;;;;;8.30;5.70;;;;;;;;;;5099310;28;20031;-70
2021/06/01 11:51:23;;;;;;;8.07;5.10;;;;;;;;;;5091815;28;20618;-70
2021/06/01 11:53:49;;;;;;;6.93;4.90;;;;;;;;;;5097577;28;20031;-70
2021/06/01 11:56:20;;;;;;;6.50;4.40;;;;;;;;;;5103790;28;20497;-69
2021/06/01 12:02:06;;;;;;;10.45;5.38;;;;;;;;;;5091209;28;20130;-70
2021/06/01 12:18:22;;;;;;;6.18;5.13;;;;;;;;;;5087972;28;20055;-70
2021/06/01 12:20:48;;;;;;;7.68;5.18;;;;;;;;;;5088708;28;20521;-71
2021/06/01 12:23:27;;;;;;;7.88;5.43;;;;;;;;;;5090283;28;20020;-71
2021/06/01 12:26:02;;;;;;;9.73;4.97;;;;;;;;;;5088722;28;20103;-69
2021/06/01 12:31:17;;;;;;;6.97;5.25;;;;;;;;;;5089240;28;20093;-70
2021/06/01 12:33:43;;;;;;;11.27;6.30;;;;;;;;;;5088910;28;20024;-70
2021/06/01 12:44:09;;;;;;;8.52;5.25;;;;;;;;;;5103848;28;20023;-70
2021/06/01 13:20:21;;;;;;;7.13;5.82;;;;;;;;;;5092888;28;20038;-69
2021/06/01 13:39:02;;;;;;;10.35;6.40;;;;;;;;;;5099216;28;20101;-70
2021/06/01 13:46:48;;;;;;;8.05;6.57;;;;;;;;;;5105431;28;20047;-71
2021/06/01 13:49:21;;;;;;;8.48;6.30;;;;;;;;;;5100287;28;20053;-71
2021/06/01 14:29:43;;;;;;;10.53;5.97;;;;;;;;;;5103462;28;19941;-71
2021/06/01 14:32:23;;;;;;;7.20;6.50;;;;;;;;;;5101359;28;20039;-71
2021/06/01 15:03:57;;;;;;;8.65;5.78;;;;;;;;;;5103271;28;20666;-72
2021/06/01 15:07:41;;;;;;;6.55;5.78;;;;;;;;;;5098627;28;20032;-73
2021/06/01 16:11:20;;;;;;;7.60;4.55;;;;;;;;;;5095558;28;20500;-72
2021/06/01 16:21:22;;;;;;;9.23;5.07;;;;;;;;;;5106012;28;20078;-72
2021/06/01 16:23:36;;;;;;;10.70;5.78;;;;;;;;;;5014154;28;20052;-72
2021/06/01 17:04:55;;;;;;;6.80;6.10;;;;;;;;;;5070022;28;20474;-70
2021/06/01 17:13:03;;;;;;;6.32;5.45;;;;;;;;;;5115688;28;20051;-73
2021/06/01 17:15:29;;;;;;;7.75;6.15;;;;;;;;;;5115472;28;20023;-73
2021/06/01 17:18:04;;;;;;;8.90;5.50;;;;;;;;;;5115866;28;20043;-72
2021/06/01 17:31:24;;;;;;;8.30;5.93;;;;;;;;;;5099298;28;20070;-72
2021/06/01 17:36:24;;;;;;;7.93;5.43;;;;;;;;;;5116199;28;20035;-71
2021/06/01 17:38:50;;;;;;;8.15;5.65;;;;;;;;;;5107108;28;20197;-73
2021/06/01 17:41:19;;;;;;;7.53;6.00;;;;;;;;;;5096610;28;20077;-74
2021/06/01 17:43:45;;;;;;;7.65;5.25;;;;;;;;;;5115786;28;20027;-72
2021/06/01 17:46:14;;;;;;;6.50;5.80;;;;;;;;;;5111332;28;20020;-72
2021/06/01 17:48:56;;;;;;;8.30;5.70;;;;;;;;;;5105326;28;20107;-73
2021/06/01 17:51:24;;;;;;;9.05;5.43;;;;;;;;;;5106844;28;20027;-73
2021/06/01 17:53:51;;;;;;;6.57;5.30;;;;;;;;;;5101022;28;20466;-73
2021/06/01 17:56:19;;;;;;;6.72;5.30;;;;;;;;;;5098610;28;20039;-73
2021/06/01 17:58:45;;;;;;;7.65;5.30;;;;;;;;;;5076382;28;20424;-73
2021/06/01 18:01:11;;;;;;;7.80;4.88;;;;;;;;;;5107492;28;20102;-72
2021/06/01 18:03:44;;;;;;;8.57;5.13;;;;;;;;;;5095715;28;20024;-72
2021/06/01 18:06:11;;;;;;;6.63;5.13;;;;;;;;;;5094492;28;20446;-73
2021/06/01 18:08:47;;;;;;;7.60;4.65;;;;;;;;;;5098236;28;20054;-71
2021/06/01 18:12:38;;;;;;;5.60;4.57;;;;;;;;;;5098323;28;20024;-70
2021/06/01 19:21:23;;;;;;;7.13;5.43;;;;;;;;;;5093301;28;20042;-73
2021/06/01 19:50:19;;;;;;;9.25;6.63;;;;;;;;;;5092900;28;20039;-71
2021/06/01 19:52:46;;;;;;;9.55;6.57;;;;;;;;;;5092781;28;20021;-72
2021/06/01 19:55:13;;;;;;;10.73;7.20;;;;;;;;;;5093197;28;20031;-72
2021/06/01 19:57:39;;;;;;;9.25;7.07;;;;;;;;;;5092420;28;20030;-72
2021/06/01 20:00:07;;;;;;;9.93;7.47;;;;;;;;;;5093664;28;20024;-73
2021/06/01 20:02:34;;;;;;;8.43;6.88;;;;;;;;;;5106373;28;20023;-72
2021/06/01 20:05:05;;;;;;;11.35;8.65;;;;;;;;;;5112906;28;20024;-71
2021/06/01 20:07:31;;;;;;;9.70;7.35;;;;;;;;;;5093426;28;20024;-72
2021/06/01 20:09:58;;;;;;;10.20;7.30;;;;;;;;;;5092402;28;20055;-73
2021/06/01 20:12:25;;;;;;;10.60;7.63;;;;;;;;;;5075084;28;20472;-73
2021/06/01 20:14:54;;;;;;;8.15;6.85;;;;;;;;;;5102764;28;20039;-72
2021/06/01 20:17:29;;;;;;;10.27;7.75;;;;;;;;;;5074625;28;20127;-72
2021/06/01 20:19:56;;;;;;;10.77;7.70;;;;;;;;;;5092368;28;20478;-73
2021/06/01 20:22:29;;;;;;;8.63;7.50;;;;;;;;;;5092429;28;20028;-72
2021/06/01 20:24:57;;;;;;;11.52;8.07;;;;;;;;;;5092014;28;20034;-71
2021/06/01 20:27:24;;;;;;;12.52;8.23;;;;;;;;;;5092402;28;20047;-72
2021/06/01 20:29:52;;;;;;;13.13;7.60;;;;;;;;;;5111279;28;20076;-72
2021/06/01 20:35:11;;;;;;;12.93;7.70;;;;;;;;;;5109792;28;20065;-73
2021/06/01 20:37:37;;;;;;;10.90;8.07;;;;;;;;;;5092202;28;20536;-71
2021/06/01 20:40:04;;;;;;;11.93;7.45;;;;;;;;;;5092027;28;20411;-73
2021/06/01 20:42:30;;;;;;;10.88;8.48;;;;;;;;;;5092162;28;20125;-73
2021/06/01 20:44:56;;;;;;;12.70;9.93;;;;;;;;;;5093434;28;20023;-72
2021/06/01 20:47:23;;;;;;;14.40;7.47;;;;;;;;;;5112557;28;20031;-72
2021/06/01 20:49:49;;;;;;;9.05;7.65;;;;;;;;;;5112470;28;20038;-73
2021/06/01 20:52:16;;;;;;;11.55;8.02;;;;;;;;;;5091959;28;20028;-73
2021/06/01 20:54:42;;;;;;;12.27;8.18;;;;;;;;;;5091933;28;20028;-72
2021/06/01 20:57:09;;;;;;;13.23;9.02;;;;;;;;;;5110531;28;20103;-72
2021/06/01 20:59:35;;;;;;;11.30;8.07;;;;;;;;;;5114792;28;20026;-72
2021/06/01 21:02:02;;;;;;;13.07;8.60;;;;;;;;;;5098897;28;20024;-73
2021/06/01 21:04:28;;;;;;;11.95;9.00;;;;;;;;;;5095712;28;20071;-71
2021/06/01 21:06:54;;;;;;;13.52;8.68;;;;;;;;;;5095875;28;20544;-73
2021/06/01 21:09:21;;;;;;;10.77;8.68;;;;;;;;;;5095620;28;20467;-73
2021/06/01 21:11:47;;;;;;;11.95;8.85;;;;;;;;;;5095577;28;20372;-72
2021/06/01 21:14:13;;;;;;;15.27;9.90;;;;;;;;;;5103876;28;20482;-73
2021/06/01 21:16:39;;;;;;;14.15;9.65;;;;;;;;;;5098582;28;20028;-72
2021/06/01 21:19:05;;;;;;;15.07;9.80;;;;;;;;;;5096100;28;20024;-73
2021/06/01 21:21:32;;;;;;;14.90;10.10;;;;;;;;;;5095347;28;20029;-73
2021/06/01 21:23:58;;;;;;;22.20;12.73;;;;;;;;;;5095522;28;20025;-72
2021/06/01 21:26:25;;;;;;;15.18;11.20;;;;;;;;;;5095220;28;20032;-72
2021/06/01 21:28:53;;;;;;;16.08;11.93;;;;;;;;;;5114213;28;20023;-73
2021/06/01 21:31:21;;;;;;;17.00;11.85;;;;;;;;;;5102197;28;20032;-72
2021/06/01 21:33:49;;;;;;;17.60;12.88;;;;;;;;;;5095327;28;20056;-73
2021/06/01 21:36:18;;;;;;;21.00;12.60;;;;;;;;;;5095527;28;20089;-73
2021/06/01 21:38:45;;;;;;;18.45;12.30;;;;;;;;;;5094994;28;20024;-74
2021/06/01 21:41:14;;;;;;;18.30;12.55;;;;;;;;;;5095026;28;20062;-73
2021/06/01 21:43:41;;;;;;;17.10;12.40;;;;;;;;;;5095000;28;20032;-73
2021/06/01 21:46:08;;;;;;;18.67;13.38;;;;;;;;;;5096546;28;20030;-73
2021/06/01 21:49:00;;;;;;;17.33;12.93;;;;;;;;;;5094934;28;20047;-73
2021/06/01 21:51:27;;;;;;;18.48;12.52;;;;;;;;;;5090278;28;20579;-74